Kezdőlap
METAR-TAF:

METAR-TAF

Repülőterek :

Beatrice Municipal Airport

Beatrice, Nebraska, Amerikai Egyesült Államok

földrajzi szélesség: 40-18N, földrajzi hosszúság: 096-45W, magasság: 403 m

Jelenlegi meteorológiai megfigyelések

A jelentés 10 perccel ezelõtt készült, 09:35 UTC
Dél-délkeleti szél 5 kt
Hőmérséklet 23°C
Páratartalom 83%
Légköri nyomás 1012 hPa
Látótávolság: 16.1 km
Derült ég

METAR: KBIE 080935Z AUTO 16005KT 10SM CLR 23/20 A2988 RMK AO2 T02330198

Idő: 04:45 (09:45 UTC)


TAF: hiányzik

Meteorológiai megfigyelések és előrejelzések több, mint 4000 repülőtéren (METAR és TAF jelentéseket).

A térképen piros és sárga pontok jelzik az elérhető meteorológiai állomásokat.

Mozgassa az egeret a pont fölött, hogy megjelenjen az állomás neve.

Azután kattintson az időjárási megfigyelések és előrejelzések megtekintéséhez.

A térkép megváltoztatása: kattintson a fekete keresztel jelölt zöld gombra ráközelítéshez, a vonallal jelölt zöld gombra távolításhoz, vagy a zöld nyilakra a szomszédos térképek eléréséhez.


METAR-TAF: